createdAt,value
2018-01-29T00:00:31.405Z,8.30
2018-01-29T00:03:00.557Z,7.00
2018-01-29T00:05:29.368Z,6.47
2018-01-29T00:07:59.385Z,6.23
2018-01-29T00:10:29.154Z,7.10
2018-01-29T00:12:57.624Z,6.53
2018-01-29T00:15:26.233Z,6.70
2018-01-29T00:17:54.848Z,6.30
2018-01-29T00:20:23.736Z,6.47
2018-01-29T00:22:52.537Z,5.87
2018-01-29T00:25:22.535Z,6.30
2018-01-29T00:27:52.366Z,6.53
2018-01-29T00:30:21.488Z,7.60
2018-01-29T00:32:49.969Z,7.27
2018-01-29T00:35:19.345Z,7.87
2018-01-29T00:37:48.382Z,7.60
2018-01-29T00:40:17.922Z,7.30
2018-01-29T00:42:47.782Z,7.43
2018-01-29T00:45:17.021Z,7.23
2018-01-29T00:47:46.252Z,7.00
2018-01-29T00:50:15.314Z,6.53
2018-01-29T00:52:44.243Z,6.60
2018-01-29T00:55:13.634Z,8.03
2018-01-29T00:57:43.097Z,6.57
2018-01-29T01:00:11.914Z,7.50
2018-01-29T01:02:40.370Z,8.17
2018-01-29T01:05:09.462Z,8.93
2018-01-29T01:07:38.860Z,7.50
2018-01-29T01:10:07.686Z,8.30
2018-01-29T01:12:37.453Z,9.23
2018-01-29T01:15:06.297Z,7.33
2018-01-29T01:17:35.195Z,8.10
2018-01-29T01:20:04.464Z,8.80
2018-01-29T01:22:34.274Z,8.63
2018-01-29T01:25:04.123Z,8.87
2018-01-29T01:27:33.162Z,8.47
2018-01-29T01:30:01.993Z,10.33
2018-01-29T01:32:31.699Z,9.13
2018-01-29T01:35:01.808Z,9.17
2018-01-29T01:37:31.039Z,10.83
2018-01-29T01:40:00.162Z,10.80
2018-01-29T01:42:29.667Z,8.70
2018-01-29T01:44:58.966Z,9.20
2018-01-29T01:47:28.085Z,10.33
2018-01-29T01:49:57.516Z,9.40
2018-01-29T01:52:27.096Z,8.40
2018-01-29T01:54:56.790Z,9.17
2018-01-29T01:57:27.857Z,8.60
2018-01-29T01:59:56.305Z,9.83
2018-01-29T02:02:25.231Z,13.03
2018-01-29T02:04:54.158Z,9.33
2018-01-29T02:07:22.985Z,8.77
2018-01-29T02:09:52.188Z,9.53
2018-01-29T02:12:20.645Z,9.57
2018-01-29T02:14:49.855Z,8.87
2018-01-29T02:17:18.691Z,10.00
2018-01-29T02:19:47.141Z,7.93
2018-01-29T02:22:16.433Z,9.13
2018-01-29T02:24:45.317Z,8.07
2018-01-29T02:27:15.408Z,7.03
2018-01-29T02:29:44.699Z,9.37
2018-01-29T02:32:13.874Z,14.43
2018-01-29T02:34:43.152Z,6.70
2018-01-29T02:37:11.750Z,12.93
2018-01-29T02:39:41.089Z,8.97
2018-01-29T02:42:10.275Z,10.00
2018-01-29T02:44:39.234Z,8.33
2018-01-29T02:47:08.061Z,9.10
2018-01-29T02:49:37.112Z,10.67
2018-01-29T02:52:06.898Z,8.63
2018-01-29T02:54:36.620Z,10.90
2018-01-29T02:57:05.117Z,10.00
2018-01-29T02:59:34.539Z,14.30
2018-01-29T03:02:03.103Z,13.27
2018-01-29T03:04:31.921Z,13.73
2018-01-29T03:07:00.703Z,14.30
2018-01-29T03:09:29.256Z,12.20
2018-01-29T03:12:01.635Z,15.07
2018-01-29T03:14:30.889Z,16.57
2018-01-29T03:17:01.029Z,18.07
2018-01-29T03:19:30.515Z,12.47
2018-01-29T03:21:59.626Z,14.47
2018-01-29T03:24:28.804Z,13.03
2018-01-29T03:26:57.838Z,11.67
2018-01-29T03:29:26.676Z,19.03
2018-01-29T03:31:56.494Z,15.03
2018-01-29T03:34:25.509Z,12.57
2018-01-29T03:36:54.305Z,11.80
2018-01-29T03:39:23.259Z,19.90
2018-01-29T03:41:52.591Z,13.93
2018-01-29T03:44:21.826Z,16.47
2018-01-29T03:46:50.275Z,12.70
2018-01-29T03:49:19.981Z,12.67
2018-01-29T03:51:48.708Z,12.67
2018-01-29T03:54:17.748Z,11.43
2018-01-29T03:56:48.105Z,15.93
2018-01-29T03:59:16.716Z,13.47
2018-01-29T04:01:45.719Z,11.90
2018-01-29T04:04:14.703Z,11.00
2018-01-29T04:06:44.001Z,11.47
2018-01-29T04:09:13.351Z,11.80
2018-01-29T04:11:42.383Z,16.23
2018-01-29T04:14:11.046Z,11.63
2018-01-29T04:16:40.147Z,12.40
2018-01-29T04:19:08.885Z,9.43
2018-01-29T04:21:37.940Z,9.47
2018-01-29T04:24:06.829Z,10.70
2018-01-29T04:26:36.782Z,11.47
2018-01-29T04:29:05.507Z,10.70
2018-01-29T04:31:35.371Z,11.00
2018-01-29T04:34:04.117Z,13.40
2018-01-29T04:36:32.565Z,10.60
2018-01-29T04:39:02.589Z,11.00
2018-01-29T04:41:31.984Z,10.90
2018-01-29T04:44:00.848Z,10.30
2018-01-29T04:46:31.176Z,10.30
2018-01-29T04:48:59.724Z,10.37
2018-01-29T04:51:28.331Z,10.87
2018-01-29T04:53:57.152Z,11.10
2018-01-29T04:56:26.941Z,12.20
2018-01-29T04:58:55.418Z,12.00
2018-01-29T05:01:23.879Z,14.40
2018-01-29T05:03:52.380Z,17.27
2018-01-29T05:06:22.228Z,13.33
2018-01-29T05:08:51.374Z,13.07
2018-01-29T05:11:20.237Z,12.80
2018-01-29T05:13:48.692Z,13.97
2018-01-29T05:16:18.184Z,15.20
2018-01-29T05:18:47.314Z,17.90
2018-01-29T05:21:16.484Z,16.10
2018-01-29T05:23:45.674Z,15.00
2018-01-29T05:26:15.511Z,12.47
2018-01-29T05:28:45.647Z,11.80
2018-01-29T05:31:14.570Z,11.47
2018-01-29T05:33:43.218Z,12.53
2018-01-29T05:36:17.771Z,13.20
2018-01-29T05:38:46.801Z,16.00
2018-01-29T05:41:15.596Z,19.27
2018-01-29T05:43:44.063Z,15.10
2018-01-29T05:46:13.908Z,13.70
2018-01-29T05:48:43.172Z,16.60
2018-01-29T05:51:12.947Z,14.07
2018-01-29T05:53:41.779Z,11.60
2018-01-29T05:56:10.536Z,12.40
2018-01-29T05:58:40.116Z,13.10
2018-01-29T06:01:09.365Z,15.80
2018-01-29T06:03:38.188Z,15.33
2018-01-29T06:06:07.913Z,12.10
2018-01-29T06:08:38.218Z,13.00
2018-01-29T06:11:08.121Z,13.10
2018-01-29T06:13:36.669Z,12.80
2018-01-29T06:16:05.587Z,17.23
2018-01-29T06:18:34.687Z,12.73
2018-01-29T06:21:04.509Z,14.20
2018-01-29T06:23:33.663Z,16.57
2018-01-29T06:26:02.601Z,14.47
2018-01-29T06:28:31.755Z,14.00
2018-01-29T06:31:01.100Z,13.83
2018-01-29T06:33:30.937Z,13.93
2018-01-29T06:35:59.732Z,14.13
2018-01-29T06:38:28.176Z,10.97
2018-01-29T06:40:57.504Z,10.40
2018-01-29T06:43:26.761Z,10.97
2018-01-29T06:45:55.570Z,10.77
2018-01-29T06:48:24.914Z,11.10
2018-01-29T06:50:54.237Z,9.80
2018-01-29T06:53:24.019Z,12.20
2018-01-29T06:55:52.632Z,7.70
2018-01-29T06:58:21.073Z,8.00
2018-01-29T07:00:50.583Z,10.73
2018-01-29T07:03:19.775Z,7.97
2018-01-29T07:05:48.916Z,6.80
2018-01-29T07:08:17.548Z,9.53
2018-01-29T07:10:46.519Z,8.13
2018-01-29T07:13:15.308Z,8.23
2018-01-29T07:15:44.776Z,7.57
2018-01-29T07:18:13.417Z,7.03
2018-01-29T07:20:42.255Z,6.47
2018-01-29T07:23:10.985Z,6.87
2018-01-29T07:25:39.990Z,5.43
2018-01-29T07:28:10.077Z,29.13
2018-01-29T07:30:39.309Z,5.77
2018-01-29T07:33:07.736Z,5.93
2018-01-29T07:35:36.947Z,5.97
2018-01-29T07:38:06.079Z,5.57
2018-01-29T07:40:35.771Z,4.70
2018-01-29T07:43:04.883Z,5.17
2018-01-29T07:45:33.918Z,4.07
2018-01-29T07:48:02.734Z,6.37
2018-01-29T07:50:31.578Z,5.07
2018-01-29T07:53:01.268Z,4.10
2018-01-29T07:55:30.755Z,3.43
2018-01-29T07:57:59.588Z,3.70
2018-01-29T08:00:28.383Z,3.40
2018-01-29T08:02:56.890Z,2.93
2018-01-29T08:05:25.695Z,3.53
2018-01-29T08:07:54.197Z,2.57
2018-01-29T08:10:23.027Z,8.07
2018-01-29T08:12:51.522Z,2.60
2018-01-29T08:15:20.865Z,3.00
2018-01-29T08:17:49.997Z,3.20
2018-01-29T08:20:18.831Z,2.80
2018-01-29T08:22:48.460Z,3.37
2018-01-29T08:25:17.770Z,2.90
2018-01-29T08:27:47.001Z,2.80
2018-01-29T08:30:15.736Z,3.23
2018-01-29T08:32:44.843Z,4.43
2018-01-29T08:35:14.020Z,3.73
2018-01-29T08:37:43.535Z,3.43
2018-01-29T08:40:13.153Z,3.90
2018-01-29T08:42:42.229Z,3.70
2018-01-29T08:45:12.554Z,3.87
2018-01-29T08:47:41.982Z,4.33
2018-01-29T08:50:10.834Z,3.87
2018-01-29T08:52:40.635Z,4.47
2018-01-29T08:55:09.280Z,4.87
2018-01-29T08:57:38.149Z,4.23
2018-01-29T09:00:07.098Z,4.40
2018-01-29T09:02:35.559Z,4.93
2018-01-29T09:05:04.048Z,4.40
2018-01-29T09:07:32.524Z,5.40
2018-01-29T09:10:00.959Z,4.80
2018-01-29T09:12:29.397Z,4.77
2018-01-29T09:14:57.866Z,5.13
2018-01-29T09:17:26.303Z,5.57
2018-01-29T09:19:55.177Z,5.13
2018-01-29T09:22:23.613Z,4.33
2018-01-29T09:24:52.106Z,5.27
2018-01-29T09:27:20.570Z,4.60
2018-01-29T09:29:49.105Z,5.13
2018-01-29T09:32:17.871Z,5.30
2018-01-29T09:34:46.340Z,4.70
2018-01-29T09:37:14.823Z,4.80
2018-01-29T09:39:43.290Z,4.47
2018-01-29T09:42:11.784Z,5.13
2018-01-29T09:44:40.251Z,5.63
2018-01-29T09:47:08.683Z,5.10
2018-01-29T09:49:37.383Z,5.27
2018-01-29T09:52:05.827Z,5.20
2018-01-29T09:54:34.268Z,5.40
2018-01-29T09:57:02.722Z,6.80
2018-01-29T09:59:31.161Z,5.53
2018-01-29T10:01:59.631Z,5.33
2018-01-29T10:04:28.065Z,9.87
2018-01-29T10:06:56.992Z,6.17
2018-01-29T10:09:25.478Z,5.77
2018-01-29T10:11:53.955Z,6.47
2018-01-29T10:14:22.439Z,5.30
2018-01-29T10:16:50.867Z,5.97
2018-01-29T10:19:19.405Z,6.00
2018-01-29T10:21:47.849Z,6.23
2018-01-29T10:24:16.667Z,8.27
2018-01-29T10:26:45.109Z,7.27
2018-01-29T10:29:13.539Z,6.77
2018-01-29T10:31:41.993Z,5.20
2018-01-29T10:34:10.422Z,5.67
2018-01-29T10:36:38.873Z,7.03
2018-01-29T10:39:07.315Z,5.90
2018-01-29T10:41:36.151Z,5.40
2018-01-29T10:44:04.584Z,7.80
2018-01-29T10:46:33.421Z,5.60
2018-01-29T10:49:01.855Z,6.33
2018-01-29T10:51:30.784Z,5.63
2018-01-29T10:53:59.219Z,9.07
2018-01-29T10:56:27.739Z,7.30
2018-01-29T10:58:56.256Z,14.13
2018-01-29T11:01:25.341Z,8.90
2018-01-29T11:03:53.921Z,9.90
2018-01-29T11:06:22.412Z,13.53
2018-01-29T11:08:52.619Z,10.40
2018-01-29T11:11:21.044Z,6.43
2018-01-29T11:13:57.883Z,8.03
2018-01-29T11:16:27.228Z,5.90
2018-01-29T11:18:56.067Z,6.03
2018-01-29T11:21:24.512Z,6.17
2018-01-29T11:23:53.339Z,7.03
2018-01-29T11:26:21.828Z,6.10
2018-01-29T11:28:52.374Z,6.13
2018-01-29T11:31:20.852Z,7.73
2018-01-29T11:33:52.086Z,7.37
2018-01-29T11:36:20.545Z,8.63
2018-01-29T11:38:49.037Z,10.67
2018-01-29T11:41:28.293Z,10.10
2018-01-29T11:43:56.730Z,11.40
2018-01-29T11:46:25.179Z,11.27
2018-01-29T11:48:53.713Z,10.97
2018-01-29T11:51:22.192Z,9.20
2018-01-29T11:53:50.728Z,5.47
2018-01-29T11:56:19.668Z,7.20
2018-01-29T11:58:48.146Z,5.30
2018-01-29T12:01:18.632Z,15.30
2018-01-29T12:03:47.465Z,9.40
2018-01-29T12:06:15.956Z,6.33
2018-01-29T12:08:49.455Z,8.10
2018-01-29T12:11:17.924Z,5.03
2018-01-29T12:13:46.357Z,6.90
2018-01-29T12:16:14.830Z,8.20
2018-01-29T12:18:43.291Z,11.40
2018-01-29T12:21:11.746Z,12.03
2018-01-29T12:23:40.229Z,8.37
2018-01-29T12:26:09.375Z,8.17
2018-01-29T12:28:37.908Z,6.73
2018-01-29T12:31:06.380Z,10.80
2018-01-29T12:33:34.819Z,4.10
2018-01-29T12:36:05.196Z,7.60
2018-01-29T12:38:33.640Z,4.67
2018-01-29T12:41:12.412Z,10.50
2018-01-29T12:43:40.877Z,7.93
2018-01-29T12:46:09.891Z,6.83
2018-01-29T12:48:38.324Z,4.73
2018-01-29T12:51:07.693Z,5.23
2018-01-29T12:53:51.076Z,5.83
2018-01-29T12:56:19.598Z,11.30
2018-01-29T12:58:48.042Z,3.87
2018-01-29T13:01:16.552Z,7.50
2018-01-29T13:03:45.000Z,11.13
2018-01-29T13:06:14.136Z,7.37
2018-01-29T13:08:42.713Z,6.53
2018-01-29T13:11:26.602Z,4.67
2018-01-29T13:13:55.515Z,18.80
2018-01-29T13:16:24.483Z,8.03
2018-01-29T13:18:53.329Z,8.00
2018-01-29T13:21:30.389Z,7.17
2018-01-29T13:23:58.827Z,8.90
2018-01-29T13:26:28.454Z,6.70
2018-01-29T13:28:59.610Z,6.70
2018-01-29T13:31:28.062Z,11.00
2018-01-29T13:34:00.892Z,10.00
2018-01-29T13:36:29.341Z,9.13
2018-01-29T13:38:57.780Z,11.60
2018-01-29T13:41:26.272Z,11.80
2018-01-29T13:43:56.424Z,9.90
2018-01-29T13:46:35.694Z,11.53
2018-01-29T13:49:04.136Z,6.37
2018-01-29T13:51:32.620Z,7.73
2018-01-29T13:54:01.072Z,11.90
2018-01-29T13:56:30.770Z,7.47
2018-01-29T13:58:59.312Z,11.23
2018-01-29T14:01:30.667Z,5.67
2018-01-29T14:03:59.166Z,10.80
2018-01-29T14:06:27.637Z,13.40
2018-01-29T14:08:56.622Z,14.20
2018-01-29T14:11:30.891Z,7.00
2018-01-29T14:13:59.735Z,5.90
2018-01-29T14:16:28.207Z,8.93
2018-01-29T14:18:56.651Z,6.73
2018-01-29T14:21:25.566Z,11.07
2018-01-29T14:23:54.070Z,5.40
2018-01-29T14:26:22.528Z,4.93
2018-01-29T14:28:50.973Z,7.70
2018-01-29T14:31:19.497Z,7.87
2018-01-29T14:33:47.957Z,6.20
2018-01-29T14:36:16.405Z,6.03
2018-01-29T14:38:44.864Z,5.60
2018-01-29T14:41:13.300Z,6.20
2018-01-29T14:43:41.761Z,13.43
2018-01-29T14:46:10.595Z,6.97
2018-01-29T14:48:39.033Z,6.60
2018-01-29T14:51:07.878Z,6.77
2018-01-29T14:53:36.403Z,8.47
2018-01-29T14:56:05.252Z,8.07
2018-01-29T14:58:33.721Z,12.20
2018-01-29T15:01:02.171Z,13.57
2018-01-29T15:03:31.103Z,5.63
2018-01-29T15:05:59.570Z,6.30
2018-01-29T15:08:28.032Z,7.10
2018-01-29T15:10:56.503Z,12.07
2018-01-29T15:13:25.384Z,10.50
2018-01-29T15:15:53.857Z,7.70
2018-01-29T15:18:22.309Z,8.00
2018-01-29T15:20:50.771Z,14.50
2018-01-29T15:23:19.281Z,14.70
2018-01-29T15:25:47.746Z,11.87
2018-01-29T15:28:16.193Z,9.20
2018-01-29T15:30:44.659Z,17.93
2018-01-29T15:33:13.114Z,8.70
2018-01-29T15:35:41.565Z,12.57
2018-01-29T15:38:10.140Z,12.13
2018-01-29T15:40:38.572Z,12.37
2018-01-29T15:43:07.405Z,16.00
2018-01-29T15:45:35.870Z,14.07
2018-01-29T15:48:04.352Z,13.07
2018-01-29T15:50:32.804Z,16.23
2018-01-29T15:53:01.644Z,17.50
2018-01-29T15:55:30.155Z,15.97
2018-01-29T15:57:58.712Z,24.43
2018-01-29T16:00:27.149Z,13.73
2018-01-29T16:02:56.070Z,12.70
2018-01-29T16:05:24.526Z,15.77
2018-01-29T16:07:53.382Z,11.40
2018-01-29T16:10:21.822Z,9.80
2018-01-29T16:12:50.396Z,9.20
2018-01-29T16:15:18.832Z,8.50
2018-01-29T16:17:47.305Z,7.03
2018-01-29T16:20:16.424Z,8.07
2018-01-29T16:22:45.352Z,12.97
2018-01-29T16:25:13.832Z,7.60
2018-01-29T16:27:42.272Z,8.93
2018-01-29T16:30:15.655Z,8.57
2018-01-29T16:32:44.090Z,13.33
2018-01-29T16:35:12.636Z,15.80
2018-01-29T16:37:41.466Z,10.23
2018-01-29T16:40:19.607Z,9.87
2018-01-29T16:42:58.676Z,19.77
2018-01-29T16:45:27.176Z,18.33
2018-01-29T16:47:58.187Z,18.50
2018-01-29T16:50:27.048Z,13.40
2018-01-29T16:52:55.504Z,13.40
2018-01-29T16:55:25.405Z,12.53
2018-01-29T16:57:53.868Z,14.10
2018-01-29T17:00:22.308Z,14.63
2018-01-29T17:02:50.829Z,14.30
2018-01-29T17:05:19.344Z,14.50
2018-01-29T17:07:47.870Z,14.43
2018-01-29T17:10:18.883Z,14.57
2018-01-29T17:12:48.591Z,13.37
2018-01-29T17:15:17.039Z,14.87
2018-01-29T17:17:45.478Z,41.27
2018-01-29T17:20:14.116Z,12.43
2018-01-29T17:22:42.644Z,12.37
2018-01-29T17:25:11.588Z,12.37
2018-01-29T17:27:40.026Z,11.80
2018-01-29T17:30:08.999Z,18.33
2018-01-29T17:32:37.516Z,12.50
2018-01-29T17:35:05.986Z,14.73
2018-01-29T17:37:35.007Z,12.33
2018-01-29T17:40:03.466Z,21.13
2018-01-29T17:42:32.388Z,12.57
2018-01-29T17:45:00.844Z,13.37
2018-01-29T17:47:29.297Z,13.03
2018-01-29T17:49:57.745Z,12.13
2018-01-29T17:52:26.199Z,14.87
2018-01-29T17:54:54.643Z,14.40
2018-01-29T17:57:23.545Z,14.27
2018-01-29T17:59:51.984Z,12.80
2018-01-29T18:02:20.433Z,18.27
2018-01-29T18:04:48.925Z,14.70
2018-01-29T18:07:17.404Z,13.60
2018-01-29T18:09:45.844Z,14.33
2018-01-29T18:12:14.782Z,19.97
2018-01-29T18:14:43.227Z,18.33
2018-01-29T18:17:12.079Z,16.60
2018-01-29T18:19:40.531Z,12.73
2018-01-29T18:22:08.972Z,13.43
2018-01-29T18:24:37.454Z,14.33
2018-01-29T18:27:05.924Z,12.03
2018-01-29T18:29:34.800Z,15.50
2018-01-29T18:32:03.242Z,15.13
2018-01-29T18:34:31.687Z,26.93
2018-01-29T18:37:00.536Z,20.60
2018-01-29T18:39:29.013Z,24.67
2018-01-29T18:41:57.495Z,17.80
2018-01-29T18:44:25.940Z,27.90
2018-01-29T18:46:54.388Z,16.40
2018-01-29T18:49:23.335Z,17.93
2018-01-29T18:51:51.791Z,15.23
2018-01-29T18:54:20.236Z,17.63
2018-01-29T18:56:48.773Z,21.13
2018-01-29T18:59:17.216Z,22.27
2018-01-29T19:01:46.064Z,25.50
2018-01-29T19:04:14.513Z,22.40
2018-01-29T19:06:42.963Z,24.20
2018-01-29T19:09:11.440Z,18.57
2018-01-29T19:11:40.310Z,13.73
2018-01-29T19:14:08.854Z,12.40
2018-01-29T19:16:37.374Z,17.63
2018-01-29T19:19:05.848Z,16.57
2018-01-29T19:21:34.296Z,13.00
2018-01-29T19:24:03.369Z,15.83
2018-01-29T19:26:31.877Z,14.63
2018-01-29T19:29:00.324Z,15.57
2018-01-29T19:31:29.184Z,12.23
2018-01-29T19:33:57.692Z,19.50
2018-01-29T19:36:26.529Z,11.53
2018-01-29T19:38:54.991Z,12.27
2018-01-29T19:41:23.481Z,12.90
2018-01-29T19:43:51.960Z,11.60
2018-01-29T19:46:20.443Z,19.23
2018-01-29T19:48:48.889Z,10.40
2018-01-29T19:51:17.364Z,10.80
2018-01-29T19:53:46.640Z,10.27
2018-01-29T19:56:15.181Z,10.27
2018-01-29T19:58:43.620Z,11.73
2018-01-29T20:01:12.103Z,10.80
2018-01-29T20:03:40.939Z,12.60
2018-01-29T20:06:09.401Z,10.90
2018-01-29T20:08:37.842Z,11.60
2018-01-29T20:11:07.889Z,12.87
2018-01-29T20:13:36.411Z,14.60
2018-01-29T20:16:04.840Z,9.93
2018-01-29T20:18:33.680Z,13.07
2018-01-29T20:21:02.251Z,8.20
2018-01-29T20:23:30.745Z,3.80
2018-01-29T20:25:59.176Z,3.10
2018-01-29T20:28:33.835Z,2.73
2018-01-29T20:31:02.285Z,1.70
2018-01-29T20:33:30.789Z,0.90
2018-01-29T20:35:59.283Z,1.20
2018-01-29T20:38:27.743Z,1.17
2018-01-29T20:40:56.205Z,1.07
2018-01-29T20:43:29.041Z,1.33
2018-01-29T20:45:57.481Z,1.03
2018-01-29T20:48:26.011Z,1.63
2018-01-29T20:50:54.503Z,0.93
2018-01-29T20:53:23.384Z,1.30
2018-01-29T20:55:51.832Z,1.40
2018-01-29T20:58:21.566Z,1.00
2018-01-29T21:00:50.035Z,1.10
2018-01-29T21:03:18.530Z,1.50
2018-01-29T21:05:47.012Z,2.50
2018-01-29T21:08:15.539Z,1.13
2018-01-29T21:10:44.651Z,1.70
2018-01-29T21:13:13.092Z,1.40
2018-01-29T21:15:41.560Z,1.40
2018-01-29T21:18:10.032Z,1.40
2018-01-29T21:20:38.847Z,1.77
2018-01-29T21:23:07.453Z,1.50
2018-01-29T21:25:36.298Z,1.37
2018-01-29T21:28:04.780Z,0.93
2018-01-29T21:30:34.177Z,0.70
2018-01-29T21:33:02.645Z,0.70
2018-01-29T21:35:31.246Z,1.20
2018-01-29T21:37:59.718Z,1.30
2018-01-29T21:40:28.176Z,0.90
2018-01-29T21:42:56.618Z,1.27
2018-01-29T21:45:25.065Z,1.20
2018-01-29T21:47:53.515Z,1.00
2018-01-29T21:50:21.964Z,1.17
2018-01-29T21:52:50.831Z,1.53
2018-01-29T21:55:19.272Z,0.80
2018-01-29T21:57:47.730Z,0.60
2018-01-29T22:00:16.562Z,0.60
2018-01-29T22:02:45.026Z,0.67
2018-01-29T22:05:13.530Z,1.13
2018-01-29T22:07:42.000Z,2.80
2018-01-29T22:10:11.232Z,1.33
2018-01-29T22:12:39.666Z,0.97
2018-01-29T22:15:08.127Z,1.10
2018-01-29T22:17:37.036Z,0.77
2018-01-29T22:20:06.551Z,1.13
2018-01-29T22:22:35.047Z,1.00
2018-01-29T22:25:03.493Z,4.70
2018-01-29T22:27:32.009Z,0.77
2018-01-29T22:30:00.632Z,2.13
2018-01-29T22:32:29.865Z,1.10
2018-01-29T22:34:58.306Z,4.53
2018-01-29T22:37:26.757Z,2.40
2018-01-29T22:39:55.730Z,1.67
2018-01-29T22:42:24.189Z,0.90
2018-01-29T22:44:52.718Z,1.10
2018-01-29T22:47:21.198Z,3.00
2018-01-29T22:49:49.680Z,2.60
2018-01-29T22:52:18.245Z,3.00
2018-01-29T22:54:46.782Z,1.57
2018-01-29T22:57:15.676Z,1.37
2018-01-29T22:59:45.494Z,0.90
2018-01-29T23:02:14.530Z,3.53
2018-01-29T23:04:43.050Z,4.47
2018-01-29T23:07:11.494Z,3.40
2018-01-29T23:09:40.023Z,4.33
2018-01-29T23:12:09.286Z,6.20
2018-01-29T23:14:38.168Z,9.43
2018-01-29T23:17:06.614Z,3.30
2018-01-29T23:19:35.131Z,5.20
2018-01-29T23:22:03.605Z,5.23
2018-01-29T23:24:32.597Z,8.60
2018-01-29T23:27:01.060Z,3.77
2018-01-29T23:29:29.515Z,11.40
2018-01-29T23:31:59.501Z,5.03
2018-01-29T23:34:28.582Z,5.33
2018-01-29T23:37:01.561Z,8.90
2018-01-29T23:39:30.713Z,6.87
2018-01-29T23:41:59.749Z,3.63
2018-01-29T23:44:28.233Z,4.37
2018-01-29T23:46:56.714Z,8.20
2018-01-29T23:49:25.160Z,3.17
2018-01-29T23:52:09.419Z,7.50
2018-01-29T23:54:38.110Z,6.97
2018-01-29T23:57:06.546Z,4.13
2018-01-29T23:59:34.987Z,7.83
